createdAt,value
2022-07-30T00:02:10.270Z,4.32
2022-07-30T00:04:38.304Z,3.95
2022-07-30T00:07:06.102Z,4.03
2022-07-30T00:09:34.469Z,3.35
2022-07-30T00:12:05.718Z,3.50
2022-07-30T00:14:34.917Z,3.67
2022-07-30T00:17:04.246Z,3.17
2022-07-30T00:19:33.202Z,3.75
2022-07-30T00:22:00.887Z,3.95
2022-07-30T00:24:28.818Z,3.85
2022-07-30T00:26:56.563Z,3.20
2022-07-30T00:29:24.183Z,2.78
2022-07-30T00:31:51.738Z,3.83
2022-07-30T00:34:19.382Z,6.20
2022-07-30T00:36:47.686Z,5.82
2022-07-30T00:39:15.310Z,5.82
2022-07-30T00:42:00.566Z,6.85
2022-07-30T00:44:30.272Z,6.45
2022-07-30T00:46:59.502Z,7.00
2022-07-30T00:49:28.379Z,6.60
2022-07-30T00:51:57.040Z,7.30
2022-07-30T00:54:24.891Z,6.88
2022-07-30T00:56:52.638Z,6.40
2022-07-30T00:59:20.194Z,7.05
2022-07-30T01:01:47.808Z,6.55
2022-07-30T01:04:15.566Z,6.00
2022-07-30T01:06:43.336Z,5.68
2022-07-30T01:09:11.658Z,5.70
2022-07-30T01:11:41.364Z,5.85
2022-07-30T01:14:10.033Z,5.50
2022-07-30T01:16:40.422Z,5.75
2022-07-30T01:19:35.168Z,4.80
2022-07-30T01:22:21.582Z,5.22
2022-07-30T01:25:03.798Z,4.90
2022-07-30T01:27:37.771Z,5.30
2022-07-30T01:30:07.263Z,5.05
2022-07-30T01:32:39.337Z,4.00
2022-07-30T01:35:09.182Z,3.55
2022-07-30T01:37:39.057Z,4.68
2022-07-30T01:40:07.687Z,3.67
2022-07-30T01:42:37.770Z,3.92
2022-07-30T01:45:08.636Z,4.72
2022-07-30T01:47:38.829Z,3.53
2022-07-30T01:50:11.202Z,3.85
2022-07-30T01:52:41.602Z,4.38
2022-07-30T01:55:17.405Z,3.38
2022-07-30T01:57:48.436Z,3.00
2022-07-30T02:00:17.563Z,3.50
2022-07-30T02:02:46.087Z,2.85
2022-07-30T02:05:15.665Z,3.03
2022-07-30T02:07:50.660Z,2.83
2022-07-30T02:10:35.159Z,2.00
2022-07-30T02:13:06.667Z,2.65
2022-07-30T02:15:49.733Z,2.50
2022-07-30T02:18:24.549Z,2.22
2022-07-30T02:21:01.535Z,2.08
2022-07-30T02:23:41.003Z,2.13
2022-07-30T02:26:16.123Z,2.20
2022-07-30T02:28:46.361Z,1.92
2022-07-30T02:31:18.672Z,2.20
2022-07-30T02:33:50.562Z,2.42
2022-07-30T02:36:20.239Z,2.30
2022-07-30T02:38:52.833Z,2.60
2022-07-30T02:41:24.342Z,2.28
2022-07-30T02:43:53.875Z,3.42
2022-07-30T02:46:24.343Z,4.38
2022-07-30T02:49:14.513Z,5.47
2022-07-30T02:51:43.778Z,6.15
2022-07-30T02:54:14.504Z,5.63
2022-07-30T02:56:46.260Z,5.32
2022-07-30T02:59:16.712Z,5.63
2022-07-30T03:01:47.149Z,4.68
2022-07-30T03:04:18.991Z,5.40
2022-07-30T03:06:48.214Z,5.53
2022-07-30T03:09:18.097Z,5.60
2022-07-30T03:11:47.461Z,5.32
2022-07-30T03:14:15.916Z,5.80
2022-07-30T03:16:49.024Z,5.97
2022-07-30T03:19:20.400Z,6.00
2022-07-30T03:21:49.091Z,6.30
2022-07-30T03:24:18.594Z,6.50
2022-07-30T03:26:47.234Z,5.72
2022-07-30T03:29:16.677Z,6.78
2022-07-30T03:31:50.787Z,6.00
2022-07-30T03:34:20.449Z,6.80
2022-07-30T03:36:50.832Z,6.72
2022-07-30T03:39:20.871Z,6.60
2022-07-30T03:41:49.908Z,6.03
2022-07-30T03:44:18.769Z,6.55
2022-07-30T03:46:54.053Z,5.25
2022-07-30T03:49:24.432Z,7.25
2022-07-30T03:51:54.449Z,6.50
2022-07-30T03:54:24.248Z,7.95
2022-07-30T03:57:10.570Z,8.90
2022-07-30T04:02:12.553Z,12.90
2022-07-30T04:05:03.113Z,14.48
2022-07-30T04:07:31.207Z,15.40
2022-07-30T04:09:59.732Z,14.48
2022-07-30T04:12:46.449Z,15.55
2022-07-30T04:16:04.987Z,14.00
2022-07-30T04:18:04.772Z,13.25
2022-07-30T04:20:42.352Z,10.77
2022-07-30T04:23:10.820Z,8.60
2022-07-30T04:25:41.552Z,6.75
2022-07-30T04:28:11.970Z,5.20
2022-07-30T04:30:41.687Z,4.97
2022-07-30T04:33:10.215Z,3.60
2022-07-30T04:36:12.860Z,3.10
2022-07-30T04:38:43.963Z,2.90
2022-07-30T04:41:12.303Z,2.60
2022-07-30T04:44:00.278Z,2.75
2022-07-30T04:46:29.508Z,2.67
2022-07-30T04:48:58.535Z,2.47
2022-07-30T04:51:34.240Z,3.08
2022-07-30T04:54:05.528Z,3.10
2022-07-30T04:56:35.624Z,4.07
2022-07-30T04:59:06.324Z,5.85
2022-07-30T05:01:40.621Z,6.80
2022-07-30T05:04:13.098Z,7.32
2022-07-30T05:06:44.088Z,7.18
2022-07-30T05:09:12.389Z,8.80
2022-07-30T05:11:40.070Z,7.22
2022-07-30T05:14:08.576Z,8.00
2022-07-30T05:16:36.784Z,6.72
2022-07-30T05:19:07.411Z,7.43
2022-07-30T05:21:36.757Z,7.10
2022-07-30T05:24:05.190Z,8.10
2022-07-30T05:26:39.353Z,7.65
2022-07-30T05:29:09.672Z,9.30
2022-07-30T05:31:51.428Z,37.05
2022-07-30T05:34:20.747Z,31.70
2022-07-30T05:36:48.460Z,13.95
2022-07-30T05:39:18.185Z,12.70
2022-07-30T05:41:55.357Z,12.98
2022-07-30T05:44:27.241Z,12.63
2022-07-30T05:46:56.073Z,15.02
2022-07-30T05:49:24.945Z,12.48
2022-07-30T05:51:54.504Z,14.32
2022-07-30T05:54:24.621Z,14.93
2022-07-30T05:57:11.247Z,14.73
2022-07-30T05:59:40.257Z,13.90
2022-07-30T06:02:13.587Z,14.52
2022-07-30T06:04:56.830Z,13.85
2022-07-30T06:07:26.653Z,13.95
2022-07-30T06:10:02.708Z,15.98
2022-07-30T06:12:31.743Z,14.55
2022-07-30T06:14:59.715Z,24.90
2022-07-30T06:17:41.490Z,15.73
2022-07-30T06:20:20.041Z,20.65
2022-07-30T06:23:07.823Z,17.15
2022-07-30T06:26:08.229Z,14.73
2022-07-30T06:28:38.801Z,15.45
2022-07-30T06:31:16.461Z,14.80
2022-07-30T06:33:44.187Z,15.45
2022-07-30T06:36:14.475Z,14.55
2022-07-30T06:38:55.634Z,14.75
2022-07-30T06:41:36.150Z,15.50
2022-07-30T06:44:04.097Z,13.25
2022-07-30T06:46:52.429Z,13.38
2022-07-30T06:49:24.729Z,14.00
2022-07-30T06:51:53.189Z,13.30
2022-07-30T06:54:20.962Z,13.98
2022-07-30T06:59:22.978Z,14.23
2022-07-30T07:02:10.248Z,13.40
2022-07-30T07:04:57.056Z,12.38
2022-07-30T07:07:40.810Z,12.77
2022-07-30T07:10:11.827Z,12.60
2022-07-30T07:13:08.990Z,12.90
2022-07-30T07:15:37.734Z,11.05
2022-07-30T07:18:09.743Z,11.35
2022-07-30T07:20:40.182Z,10.35
2022-07-30T07:23:12.019Z,11.65
2022-07-30T07:25:41.506Z,9.73
2022-07-30T07:28:12.036Z,9.82
2022-07-30T07:30:43.342Z,8.95
2022-07-30T07:33:13.209Z,9.13
2022-07-30T07:35:49.749Z,8.57
2022-07-30T07:38:26.441Z,8.85
2022-07-30T07:40:55.886Z,8.32
2022-07-30T07:43:25.358Z,8.00
2022-07-30T07:45:56.391Z,7.97
2022-07-30T07:48:26.457Z,8.38
2022-07-30T07:51:13.810Z,7.82
2022-07-30T07:53:41.949Z,7.68
2022-07-30T07:56:10.239Z,8.75
2022-07-30T07:58:40.591Z,8.20
2022-07-30T08:01:11.132Z,8.70
2022-07-30T08:04:02.711Z,8.15
2022-07-30T08:07:13.994Z,7.40
2022-07-30T08:10:05.098Z,5.50
2022-07-30T08:12:53.724Z,6.25
2022-07-30T08:15:44.324Z,5.95
2022-07-30T08:18:47.413Z,6.30
2022-07-30T08:21:37.552Z,6.57
2022-07-30T08:24:06.377Z,4.70
2022-07-30T08:26:34.419Z,4.82
2022-07-30T08:29:02.525Z,5.03
2022-07-30T08:31:30.531Z,6.40
2022-07-30T08:33:58.764Z,6.50
2022-07-30T08:36:27.621Z,5.25
2022-07-30T08:38:55.283Z,5.18
2022-07-30T08:41:23.513Z,5.65
2022-07-30T08:43:52.262Z,6.30
2022-07-30T08:46:25.076Z,5.00
2022-07-30T08:49:00.668Z,6.15
2022-07-30T08:51:38.559Z,4.70
2022-07-30T08:54:29.748Z,5.28
2022-07-30T08:56:58.675Z,5.15
2022-07-30T08:59:59.065Z,4.47
2022-07-30T09:02:14.906Z,5.30
2022-07-30T09:07:27.096Z,5.97
2022-07-30T09:09:56.574Z,4.82
2022-07-30T09:12:36.149Z,4.82
2022-07-30T09:15:16.494Z,4.70
2022-07-30T09:17:57.108Z,6.03
2022-07-30T09:20:35.372Z,4.80
2022-07-30T09:23:07.182Z,4.40
2022-07-30T09:25:54.797Z,4.22
2022-07-30T09:28:41.072Z,5.15
2022-07-30T09:31:15.498Z,3.72
2022-07-30T09:34:01.565Z,6.40
2022-07-30T09:36:48.636Z,6.75
2022-07-30T09:39:33.946Z,5.25
2022-07-30T09:42:40.032Z,4.95
2022-07-30T09:45:13.383Z,4.38
2022-07-30T09:47:48.516Z,6.85
2022-07-30T09:50:30.536Z,6.53
2022-07-30T09:53:09.438Z,5.30
2022-07-30T09:55:42.000Z,5.68
2022-07-30T09:58:16.594Z,5.88
2022-07-30T10:00:58.724Z,5.93
2022-07-30T10:03:50.433Z,5.55
2022-07-30T10:06:50.962Z,5.22
2022-07-30T10:09:37.300Z,4.82
2022-07-30T10:12:11.254Z,3.92
2022-07-30T10:14:45.766Z,3.70
2022-07-30T10:17:17.413Z,3.78
2022-07-30T10:20:09.748Z,3.33
2022-07-30T10:23:09.852Z,3.03
2022-07-30T10:26:22.325Z,3.58
2022-07-30T10:29:16.364Z,2.63
2022-07-30T10:31:46.861Z,2.35
2022-07-30T10:36:58.356Z,2.47
2022-07-30T10:39:56.969Z,2.25
2022-07-30T10:42:54.172Z,2.47
2022-07-30T10:45:49.532Z,2.67
2022-07-30T10:48:19.980Z,2.53
2022-07-30T10:50:55.990Z,2.20
2022-07-30T10:53:39.803Z,2.45
2022-07-30T10:56:25.975Z,1.90
2022-07-30T10:58:59.631Z,2.35
2022-07-30T11:02:02.583Z,2.03
2022-07-30T11:04:31.553Z,1.98
2022-07-30T11:07:25.106Z,2.08
2022-07-30T11:10:05.129Z,2.17
2022-07-30T11:12:44.120Z,1.90
2022-07-30T11:15:18.207Z,1.80
2022-07-30T11:18:12.823Z,2.05
2022-07-30T11:20:47.685Z,2.40
2022-07-30T11:23:19.476Z,1.90
2022-07-30T11:25:51.688Z,1.50
2022-07-30T11:28:42.764Z,2.00
2022-07-30T11:31:56.504Z,1.52
2022-07-30T11:34:20.484Z,1.50
2022-07-30T11:37:18.269Z,1.75
2022-07-30T11:40:08.065Z,1.58
2022-07-30T11:42:39.704Z,1.70
2022-07-30T11:45:16.861Z,1.83
2022-07-30T11:47:50.225Z,0.93
2022-07-30T11:50:29.489Z,2.78
2022-07-30T11:53:00.807Z,1.10
2022-07-30T11:55:42.627Z,0.90
2022-07-30T11:58:24.531Z,1.25
2022-07-30T12:00:53.510Z,1.13
2022-07-30T12:03:24.624Z,1.15
2022-07-30T12:05:53.673Z,1.10
2022-07-30T12:08:35.356Z,1.40
2022-07-30T12:11:03.976Z,0.95
2022-07-30T12:13:44.031Z,0.98
2022-07-30T12:16:16.579Z,1.30
2022-07-30T12:18:46.475Z,0.80
2022-07-30T12:21:17.683Z,0.90
2022-07-30T12:24:00.772Z,0.77
2022-07-30T12:26:30.465Z,0.85
2022-07-30T12:29:01.088Z,0.70
2022-07-30T12:31:29.505Z,0.63
2022-07-30T12:33:59.167Z,0.90
2022-07-30T12:36:31.306Z,0.75
2022-07-30T12:39:01.735Z,0.80
2022-07-30T12:41:46.562Z,0.60
2022-07-30T12:44:37.727Z,0.60
2022-07-30T12:47:18.884Z,0.75
2022-07-30T12:49:49.698Z,0.55
2022-07-30T12:52:32.416Z,0.80
2022-07-30T12:55:09.715Z,0.55
2022-07-30T12:57:54.613Z,0.63
2022-07-30T13:00:24.285Z,0.60
2022-07-30T13:02:52.681Z,0.57
2022-07-30T13:05:21.267Z,0.70
2022-07-30T13:07:58.503Z,0.52
2022-07-30T13:10:30.706Z,0.47
2022-07-30T13:13:00.095Z,0.70
2022-07-30T13:15:27.982Z,0.70
2022-07-30T13:17:56.384Z,0.77
2022-07-30T13:20:24.409Z,0.77
2022-07-30T13:22:52.134Z,0.88
2022-07-30T13:25:20.325Z,1.00
2022-07-30T13:27:48.489Z,1.00
2022-07-30T13:30:16.611Z,1.42
2022-07-30T13:32:44.551Z,0.90
2022-07-30T13:35:12.188Z,0.80
2022-07-30T13:37:40.114Z,1.08
2022-07-30T13:40:08.702Z,0.82
2022-07-30T13:42:36.672Z,0.93
2022-07-30T13:45:04.844Z,0.93
2022-07-30T13:47:33.023Z,1.30
2022-07-30T13:50:00.876Z,0.95
2022-07-30T13:52:29.023Z,1.13
2022-07-30T13:54:56.563Z,0.95
2022-07-30T13:57:24.281Z,0.68
2022-07-30T13:59:52.666Z,0.90
2022-07-30T14:02:20.749Z,0.82
2022-07-30T14:04:48.388Z,0.60
2022-07-30T14:07:16.090Z,0.60
2022-07-30T14:09:47.015Z,0.73
2022-07-30T14:12:16.212Z,0.60
2022-07-30T14:14:44.396Z,0.40
2022-07-30T14:17:12.700Z,0.75
2022-07-30T14:19:40.394Z,0.70
2022-07-30T14:22:08.346Z,0.60
2022-07-30T14:24:36.466Z,0.90
2022-07-30T14:27:04.517Z,0.52
2022-07-30T14:29:32.718Z,0.50
2022-07-30T14:32:00.421Z,0.35
2022-07-30T14:34:28.393Z,0.65
2022-07-30T14:36:55.943Z,0.47
2022-07-30T14:39:23.832Z,0.47
2022-07-30T14:41:52.495Z,0.70
2022-07-30T14:46:52.603Z,0.50
2022-07-30T14:49:21.788Z,0.60
2022-07-30T14:51:50.609Z,0.85
2022-07-30T14:54:18.720Z,0.50
2022-07-30T14:56:46.987Z,0.57
2022-07-30T14:59:14.743Z,0.73
2022-07-30T15:01:43.861Z,0.80
2022-07-30T15:04:12.572Z,1.00
2022-07-30T15:06:41.825Z,0.70
2022-07-30T15:09:09.781Z,0.80
2022-07-30T15:12:04.321Z,0.77
2022-07-30T15:14:27.162Z,0.80
2022-07-30T15:17:03.464Z,0.70
2022-07-30T15:19:32.846Z,0.40
2022-07-30T15:22:02.814Z,0.57
2022-07-30T15:24:31.648Z,0.85
2022-07-30T15:27:00.259Z,0.68
2022-07-30T15:29:30.305Z,0.80
2022-07-30T15:32:00.412Z,0.80
2022-07-30T15:34:29.137Z,0.80
2022-07-30T15:36:56.736Z,0.93
2022-07-30T15:39:24.315Z,0.80
2022-07-30T15:41:57.498Z,0.93
2022-07-30T15:44:25.666Z,0.68
2022-07-30T15:46:53.360Z,1.08
2022-07-30T15:49:21.374Z,0.90
2022-07-30T15:51:49.782Z,0.90
2022-07-30T15:54:22.277Z,1.02
2022-07-30T15:57:00.975Z,1.00
2022-07-30T15:59:30.863Z,1.15
2022-07-30T16:01:58.600Z,1.02
2022-07-30T16:04:32.020Z,1.02
2022-07-30T16:07:01.592Z,0.98
2022-07-30T16:09:29.678Z,0.82
2022-07-30T16:11:58.520Z,0.88
2022-07-30T16:14:27.218Z,0.60
2022-07-30T16:16:55.196Z,0.70
2022-07-30T16:19:23.031Z,0.90
2022-07-30T16:21:51.223Z,1.02
2022-07-30T16:24:19.177Z,0.60
2022-07-30T16:26:47.412Z,0.80
2022-07-30T16:29:15.071Z,0.75
2022-07-30T16:31:43.799Z,0.52
2022-07-30T16:34:11.443Z,0.75
2022-07-30T16:36:38.968Z,0.90
2022-07-30T16:39:07.064Z,0.70
2022-07-30T16:41:35.146Z,1.48
2022-07-30T16:44:04.272Z,1.10
2022-07-30T16:46:31.780Z,0.80
2022-07-30T16:48:59.775Z,0.90
2022-07-30T16:51:27.754Z,0.98
2022-07-30T16:53:55.741Z,0.70
2022-07-30T16:56:23.946Z,1.20
2022-07-30T16:58:51.536Z,0.55
2022-07-30T17:01:19.337Z,1.10
2022-07-30T17:03:47.147Z,0.90
2022-07-30T17:06:15.870Z,0.77
2022-07-30T17:08:43.480Z,0.70
2022-07-30T17:11:14.477Z,0.93
2022-07-30T17:13:59.807Z,1.15
2022-07-30T17:16:27.559Z,1.15
2022-07-30T17:18:55.718Z,1.45
2022-07-30T17:21:24.305Z,0.55
2022-07-30T17:23:51.890Z,1.20
2022-07-30T17:26:19.483Z,0.85
2022-07-30T17:28:47.313Z,0.88
2022-07-30T17:31:15.304Z,0.90
2022-07-30T17:33:43.285Z,1.15
2022-07-30T17:36:12.827Z,1.10
2022-07-30T17:38:40.502Z,1.25
2022-07-30T17:41:13.113Z,1.02
2022-07-30T17:43:41.823Z,0.90
2022-07-30T17:46:09.393Z,1.40
2022-07-30T17:48:37.022Z,1.20
2022-07-30T17:51:05.039Z,1.30
2022-07-30T17:53:34.997Z,1.13
2022-07-30T17:56:04.771Z,1.17
2022-07-30T17:58:33.861Z,1.27
2022-07-30T18:01:03.822Z,1.20
2022-07-30T18:03:32.388Z,1.10
2022-07-30T18:06:00.674Z,1.48
2022-07-30T18:08:29.573Z,1.30
2022-07-30T18:10:57.239Z,1.23
2022-07-30T18:13:27.056Z,1.80
2022-07-30T18:15:55.411Z,1.25
2022-07-30T18:18:23.170Z,1.25
2022-07-30T18:20:50.810Z,0.98
2022-07-30T18:23:20.110Z,1.40
2022-07-30T18:25:51.890Z,2.40
2022-07-30T18:28:22.503Z,6.95
2022-07-30T18:30:50.456Z,4.90
2022-07-30T18:33:18.697Z,8.32
2022-07-30T18:35:46.628Z,7.28
2022-07-30T18:38:15.081Z,5.60
2022-07-30T18:40:45.004Z,5.18
2022-07-30T18:43:13.185Z,5.28
2022-07-30T18:45:41.019Z,6.35
2022-07-30T18:48:08.622Z,6.35
2022-07-30T18:50:37.903Z,6.18
2022-07-30T18:53:15.553Z,4.47
2022-07-30T18:55:44.250Z,5.82
2022-07-30T18:58:12.651Z,5.38
2022-07-30T19:00:43.305Z,3.72
2022-07-30T19:03:16.258Z,28.73
2022-07-30T19:05:46.552Z,3.20
2022-07-30T19:08:14.189Z,2.15
2022-07-30T19:10:42.152Z,2.30
2022-07-30T19:13:10.476Z,1.88
2022-07-30T19:15:38.911Z,3.08
2022-07-30T19:18:07.177Z,2.97
2022-07-30T19:20:35.309Z,3.25
2022-07-30T19:23:05.620Z,3.75
2022-07-30T19:25:34.951Z,3.80
2022-07-30T19:28:04.597Z,4.35
2022-07-30T19:30:34.281Z,4.05
2022-07-30T19:33:12.482Z,4.22
2022-07-30T19:35:42.595Z,3.55
2022-07-30T19:38:11.829Z,4.07
2022-07-30T19:40:42.455Z,6.05
2022-07-30T19:43:10.723Z,4.25
2022-07-30T19:45:46.897Z,2.60
2022-07-30T19:48:30.598Z,2.42
2022-07-30T19:51:00.855Z,2.88
2022-07-30T19:53:31.511Z,2.15
2022-07-30T19:56:04.638Z,9.90
2022-07-30T19:58:39.986Z,3.85
2022-07-30T20:01:08.811Z,3.55
2022-07-30T20:03:38.825Z,3.80
2022-07-30T20:06:08.025Z,3.75
2022-07-30T20:08:37.297Z,3.72
2022-07-30T20:11:07.491Z,2.80
2022-07-30T20:13:45.058Z,2.20
2022-07-30T20:16:16.283Z,1.90
2022-07-30T20:18:46.502Z,2.33
2022-07-30T20:21:16.254Z,1.88
2022-07-30T20:23:45.517Z,2.10
2022-07-30T20:26:15.171Z,1.92
2022-07-30T20:28:52.577Z,2.15
2022-07-30T20:31:21.464Z,1.90
2022-07-30T20:33:50.832Z,1.98
2022-07-30T20:36:19.742Z,2.10
2022-07-30T20:38:47.856Z,2.00
2022-07-30T20:41:16.552Z,2.13
2022-07-30T20:43:51.428Z,1.48
2022-07-30T20:46:23.375Z,1.85
2022-07-30T20:48:52.913Z,1.50
2022-07-30T20:51:22.120Z,2.47
2022-07-30T20:54:02.456Z,1.80
2022-07-30T20:56:30.990Z,2.13
2022-07-30T20:58:59.338Z,1.65
2022-07-30T21:01:28.703Z,10.40
2022-07-30T21:03:58.588Z,1.40
2022-07-30T21:06:26.952Z,1.80
2022-07-30T21:08:56.564Z,2.20
2022-07-30T21:11:25.202Z,2.67
2022-07-30T21:13:54.027Z,2.00
2022-07-30T21:16:47.908Z,1.95
2022-07-30T21:19:19.366Z,1.50
2022-07-30T21:21:50.987Z,2.08
2022-07-30T21:24:21.893Z,2.43
2022-07-30T21:26:51.695Z,1.95
2022-07-30T21:29:19.822Z,3.10
2022-07-30T21:32:01.291Z,1.85
2022-07-30T21:34:35.894Z,1.65
2022-07-30T21:37:09.945Z,2.00
2022-07-30T21:39:39.579Z,1.90
2022-07-30T21:42:10.670Z,1.90
2022-07-30T21:44:38.971Z,1.77
2022-07-30T21:47:10.393Z,2.20
2022-07-30T21:49:39.962Z,1.80
2022-07-30T21:52:08.753Z,1.70
2022-07-30T21:54:45.101Z,1.40
2022-07-30T21:57:26.521Z,1.60
2022-07-30T21:59:58.512Z,1.65
2022-07-30T22:05:15.981Z,1.63
2022-07-30T22:07:44.055Z,1.45
2022-07-30T22:10:11.917Z,1.80
2022-07-30T22:12:39.719Z,1.77
2022-07-30T22:15:09.496Z,1.83
2022-07-30T22:17:58.639Z,3.05
2022-07-30T22:20:27.793Z,1.52
2022-07-30T22:22:57.168Z,1.88
2022-07-30T22:25:39.625Z,1.73
2022-07-30T22:28:15.468Z,1.60
2022-07-30T22:30:45.230Z,1.90
2022-07-30T22:33:13.110Z,1.48
2022-07-30T22:35:46.790Z,2.05
2022-07-30T22:38:19.689Z,2.15
2022-07-30T22:40:48.022Z,1.70
2022-07-30T22:43:40.988Z,1.45
2022-07-30T22:46:30.184Z,1.87
2022-07-30T22:52:01.079Z,1.20
2022-07-30T22:54:35.413Z,1.58
2022-07-30T22:57:04.175Z,1.25
2022-07-30T22:59:59.845Z,1.42
2022-07-30T23:02:20.771Z,1.40
2022-07-30T23:04:48.997Z,1.95
2022-07-30T23:07:18.875Z,1.67
2022-07-30T23:09:51.488Z,1.50
2022-07-30T23:12:20.455Z,1.50
2022-07-30T23:12:28.084Z,1.77
2022-07-30T23:12:34.138Z,1.40
2022-07-30T23:14:48.890Z,1.38
2022-07-30T23:17:17.427Z,1.50
2022-07-30T23:19:45.518Z,1.73
2022-07-30T23:22:13.525Z,1.48
2022-07-30T23:24:41.333Z,1.58
2022-07-30T23:27:09.661Z,1.60
2022-07-30T23:29:38.500Z,1.83
2022-07-30T23:32:06.375Z,1.50
2022-07-30T23:34:34.117Z,1.52
2022-07-30T23:37:06.202Z,1.30
2022-07-30T23:39:34.238Z,1.73
2022-07-30T23:42:02.542Z,1.63
2022-07-30T23:44:32.371Z,1.17
2022-07-30T23:47:04.263Z,1.33
2022-07-30T23:49:32.964Z,1.50
2022-07-30T23:52:01.588Z,1.40
2022-07-30T23:54:30.152Z,2.42
2022-07-30T23:56:57.898Z,1.60
2022-07-30T23:59:40.439Z,1.40
